Terminal Aerodrome Forecast
Issued by NWS

Home | Current Version | Previous Version | Text Only | Print | Product List | Glossary On
Versions: 1 2 3 4 5 6 7 8 9 10 11 12 13 14
771
FTUS43 KMPX 282320
TAFRNH
TAF
KRNH 282320Z 2900/2924 28010KT P6SM VCSH BKN060
     FM290400 28009KT P6SM SCT100
     FM291100 29007KT P6SM OVC025
     FM291400 28014G22KT P6SM OVC015
     FM291800 28017G25KT P6SM -SHRA OVC025=

USA.gov is the U.S. government's official web portal to all federal, state and local government web resources and services.